createdAt,value
2019-02-07T00:02:09.850Z,21.03
2019-02-07T00:04:41.668Z,22.73
2019-02-07T00:07:10.854Z,22.53
2019-02-07T00:09:48.339Z,20.40
2019-02-07T00:12:17.435Z,22.50
2019-02-07T00:14:46.851Z,23.77
2019-02-07T00:17:15.649Z,20.90
2019-02-07T00:19:53.605Z,22.47
2019-02-07T00:22:22.421Z,19.50
2019-02-07T00:24:52.822Z,22.03
2019-02-07T00:27:21.495Z,22.40
2019-02-07T00:32:34.541Z,24.27
2019-02-07T00:35:03.330Z,23.73
2019-02-07T00:37:31.986Z,21.70
2019-02-07T00:40:12.395Z,22.87
2019-02-07T00:42:41.113Z,22.00
2019-02-07T00:45:11.561Z,22.77
2019-02-07T00:47:40.639Z,22.37
2019-02-07T00:50:18.515Z,24.13
2019-02-07T00:52:47.468Z,22.40
2019-02-07T00:55:16.497Z,23.37
2019-02-07T00:57:45.573Z,22.67
2019-02-07T01:00:27.919Z,26.17
2019-02-07T01:02:56.823Z,23.77
2019-02-07T01:05:25.790Z,20.83
2019-02-07T01:07:54.513Z,22.03
2019-02-07T01:10:24.298Z,20.47
2019-02-07T01:12:53.395Z,21.93
2019-02-07T01:15:22.113Z,21.87
2019-02-07T01:17:50.768Z,20.80
2019-02-07T01:20:30.089Z,22.77
2019-02-07T01:23:00.279Z,24.00
2019-02-07T01:25:29.029Z,21.37
2019-02-07T01:27:57.760Z,20.03
2019-02-07T01:30:35.732Z,18.30
2019-02-07T01:33:04.628Z,20.07
2019-02-07T01:35:34.104Z,21.60
2019-02-07T01:38:03.104Z,22.43
2019-02-07T01:40:44.230Z,20.80
2019-02-07T01:43:13.178Z,20.27
2019-02-07T01:45:41.924Z,19.40
2019-02-07T01:48:10.579Z,17.87
2019-02-07T01:50:48.204Z,21.63
2019-02-07T01:53:18.140Z,20.60
2019-02-07T01:55:49.838Z,19.67
2019-02-07T01:58:18.503Z,14.57
2019-02-07T02:00:56.317Z,23.27
2019-02-07T02:03:29.228Z,22.17
2019-02-07T02:05:57.929Z,21.07
2019-02-07T02:08:26.568Z,23.30
2019-02-07T02:11:06.118Z,23.23
2019-02-07T02:13:34.798Z,23.03
2019-02-07T02:16:03.480Z,26.10
2019-02-07T02:18:32.140Z,25.77
2019-02-07T02:21:09.992Z,23.07
2019-02-07T02:23:38.746Z,25.37
2019-02-07T02:26:08.024Z,22.20
2019-02-07T02:28:37.029Z,25.37
2019-02-07T02:33:48.915Z,18.87
2019-02-07T02:36:18.143Z,25.60
2019-02-07T02:38:47.314Z,25.30
2019-02-07T02:41:39.205Z,25.43
2019-02-07T02:44:07.921Z,25.23
2019-02-07T02:46:38.993Z,24.67
2019-02-07T02:49:08.227Z,24.30
2019-02-07T02:51:47.500Z,21.87
2019-02-07T02:54:34.684Z,26.20
2019-02-07T02:57:03.571Z,26.33
2019-02-07T02:59:32.826Z,24.87
2019-02-07T03:02:29.526Z,27.40
2019-02-07T03:05:09.943Z,24.70
2019-02-07T03:07:56.888Z,26.40
2019-02-07T03:10:53.049Z,27.47
2019-02-07T03:13:32.334Z,26.23
2019-02-07T03:16:16.375Z,26.20
2019-02-07T03:19:04.101Z,23.60
2019-02-07T03:22:13.198Z,27.00
2019-02-07T03:25:01.195Z,24.80
2019-02-07T03:27:41.790Z,22.97
2019-02-07T03:30:40.484Z,22.37
2019-02-07T03:33:18.968Z,21.53
2019-02-07T03:35:58.982Z,21.83
2019-02-07T03:38:49.809Z,23.43
2019-02-07T03:44:39.048Z,21.93
2019-02-07T03:47:14.251Z,22.00
2019-02-07T03:49:54.081Z,23.77
2019-02-07T03:52:44.245Z,25.10
2019-02-07T03:55:38.181Z,23.17
2019-02-07T03:58:19.641Z,22.70
2019-02-07T04:01:22.567Z,22.30
2019-02-07T04:04:13.124Z,22.37
2019-02-07T04:06:57.680Z,24.47
2019-02-07T04:09:42.511Z,25.40
2019-02-07T04:12:48.520Z,23.80
2019-02-07T04:15:39.214Z,27.60
2019-02-07T04:18:27.303Z,25.50
2019-02-07T04:21:30.472Z,27.93
2019-02-07T04:24:24.056Z,27.60
2019-02-07T04:27:10.598Z,23.33
2019-02-07T04:29:58.560Z,23.77
2019-02-07T04:32:48.549Z,25.87
2019-02-07T04:35:36.350Z,22.23
2019-02-07T04:38:23.145Z,24.60
2019-02-07T04:41:11.898Z,26.93
2019-02-07T04:43:52.479Z,27.17
2019-02-07T04:46:40.240Z,25.77
2019-02-07T04:49:29.072Z,25.73
2019-02-07T04:52:35.257Z,26.17
2019-02-07T04:55:31.951Z,30.80
2019-02-07T04:58:18.845Z,26.47
2019-02-07T05:03:59.552Z,27.60
2019-02-07T05:06:41.557Z,21.43
2019-02-07T05:09:30.649Z,27.20
2019-02-07T05:12:26.082Z,25.43
2019-02-07T05:15:14.228Z,26.57
2019-02-07T05:18:04.513Z,29.30
2019-02-07T05:20:55.046Z,27.97
2019-02-07T05:23:57.030Z,24.00
2019-02-07T05:26:34.890Z,24.43
2019-02-07T05:29:12.445Z,26.13
2019-02-07T05:32:25.904Z,28.17
2019-02-07T05:35:13.248Z,28.27
2019-02-07T05:38:01.104Z,30.20
2019-02-07T05:40:55.753Z,28.40
2019-02-07T05:43:55.727Z,29.30
2019-02-07T05:46:50.680Z,26.17
2019-02-07T05:49:30.344Z,28.40
2019-02-07T05:52:27.650Z,22.33
2019-02-07T05:55:18.561Z,27.43
2019-02-07T05:58:06.388Z,18.33
2019-02-07T06:00:52.993Z,27.23
2019-02-07T06:03:41.045Z,25.07
2019-02-07T06:06:32.312Z,26.80
2019-02-07T06:09:12.963Z,24.53
2019-02-07T06:12:12.801Z,26.10
2019-02-07T06:15:19.328Z,24.30
2019-02-07T06:18:09.839Z,28.40
2019-02-07T06:20:48.596Z,29.00
2019-02-07T06:23:40.373Z,29.27
2019-02-07T06:26:18.530Z,30.77
2019-02-07T06:29:06.704Z,28.77
2019-02-07T06:31:53.475Z,29.50
2019-02-07T06:34:44.498Z,28.63
2019-02-07T06:37:44.883Z,27.20
2019-02-07T06:40:36.185Z,29.57
2019-02-07T06:43:24.137Z,24.23
2019-02-07T06:46:23.623Z,27.33
2019-02-07T06:49:13.566Z,27.80
2019-02-07T06:55:43.062Z,28.50
2019-02-07T06:58:42.656Z,28.73
2019-02-07T07:01:24.344Z,27.33
2019-02-07T07:07:19.481Z,25.70
2019-02-07T07:10:02.509Z,28.27
2019-02-07T07:13:01.391Z,26.67
2019-02-07T07:15:48.570Z,28.33
2019-02-07T07:18:35.171Z,27.00
2019-02-07T07:21:22.111Z,29.77
2019-02-07T07:24:18.101Z,25.17
2019-02-07T07:27:04.899Z,25.33
2019-02-07T07:29:49.093Z,28.40
2019-02-07T07:32:35.553Z,27.93
2019-02-07T07:35:25.011Z,26.60
2019-02-07T07:38:27.658Z,26.30
2019-02-07T07:41:33.464Z,26.13
2019-02-07T07:47:17.788Z,26.53
2019-02-07T07:50:23.717Z,27.57
2019-02-07T07:53:24.080Z,28.00
2019-02-07T07:56:15.082Z,26.40
2019-02-07T07:59:02.808Z,27.10
2019-02-07T08:02:06.787Z,25.37
2019-02-07T08:04:59.295Z,24.67
2019-02-07T08:07:58.544Z,26.80
2019-02-07T08:10:59.032Z,23.47
2019-02-07T08:13:54.895Z,24.97
2019-02-07T08:16:35.543Z,23.17
2019-02-07T08:19:29.611Z,25.17
2019-02-07T08:22:07.112Z,26.10
2019-02-07T08:25:03.523Z,30.33
2019-02-07T08:28:00.616Z,26.33
2019-02-07T08:30:54.679Z,22.17
2019-02-07T08:33:52.370Z,26.43
2019-02-07T08:36:49.314Z,25.40
2019-02-07T08:39:37.468Z,26.63
2019-02-07T08:42:33.319Z,26.60
2019-02-07T08:45:19.939Z,25.07
2019-02-07T08:48:03.981Z,26.47
2019-02-07T08:51:01.440Z,26.53
2019-02-07T08:53:43.572Z,24.80
2019-02-07T08:56:30.756Z,22.73
2019-02-07T08:59:17.487Z,26.10
2019-02-07T09:02:13.448Z,29.47
2019-02-07T09:05:05.055Z,26.43
2019-02-07T09:07:55.918Z,24.37
2019-02-07T09:10:42.319Z,28.03
2019-02-07T09:13:23.383Z,25.70
2019-02-07T09:16:03.460Z,24.40
2019-02-07T09:18:59.656Z,24.17
2019-02-07T09:22:02.597Z,24.77
2019-02-07T09:24:59.241Z,24.83
2019-02-07T09:27:46.989Z,22.70
2019-02-07T09:33:41.611Z,21.80
2019-02-07T09:36:29.984Z,25.37
2019-02-07T09:39:16.973Z,24.30
2019-02-07T09:42:14.896Z,22.70
2019-02-07T09:45:05.980Z,22.80
2019-02-07T09:47:51.006Z,22.40
2019-02-07T09:50:45.914Z,22.87
2019-02-07T09:53:39.464Z,23.37
2019-02-07T09:56:25.901Z,24.63
2019-02-07T09:59:09.009Z,21.90
2019-02-07T10:02:15.153Z,23.60
2019-02-07T10:05:05.779Z,23.50
2019-02-07T10:08:08.977Z,23.97
2019-02-07T10:10:46.927Z,24.43
2019-02-07T10:16:33.217Z,23.67
2019-02-07T10:19:21.751Z,22.27
2019-02-07T10:22:26.164Z,22.23
2019-02-07T10:25:24.676Z,22.50
2019-02-07T10:28:05.659Z,22.80
2019-02-07T10:31:05.835Z,20.27
2019-02-07T10:33:54.469Z,22.67
2019-02-07T10:36:33.904Z,23.47
2019-02-07T10:39:21.803Z,22.57
2019-02-07T10:42:34.416Z,22.27
2019-02-07T10:45:24.124Z,21.43
2019-02-07T10:48:18.551Z,20.83
2019-02-07T10:51:26.840Z,21.53
2019-02-07T10:54:29.879Z,24.00
2019-02-07T10:57:20.437Z,22.37
2019-02-07T11:00:08.749Z,22.77
2019-02-07T11:03:04.855Z,22.00
2019-02-07T11:05:51.559Z,22.33
2019-02-07T11:08:43.728Z,21.47
2019-02-07T11:11:19.504Z,21.87
2019-02-07T11:14:09.024Z,22.47
2019-02-07T11:17:03.849Z,21.90
2019-02-07T11:19:55.650Z,21.80
2019-02-07T11:22:59.810Z,22.40
2019-02-07T11:25:54.480Z,23.00
2019-02-07T11:28:46.830Z,22.57
2019-02-07T11:31:34.973Z,22.20
2019-02-07T11:37:07.913Z,22.33
2019-02-07T11:39:58.235Z,22.93
2019-02-07T11:45:53.226Z,22.57
2019-02-07T11:48:53.166Z,24.87
2019-02-07T11:51:39.931Z,23.77
2019-02-07T11:54:42.824Z,24.57
2019-02-07T11:57:37.653Z,24.10
2019-02-07T12:00:38.411Z,23.23
2019-02-07T12:03:35.262Z,25.53
2019-02-07T12:06:21.695Z,24.50
2019-02-07T12:09:08.070Z,26.07
2019-02-07T12:11:55.843Z,24.97
2019-02-07T12:14:41.867Z,25.73
2019-02-07T12:17:30.550Z,25.50
2019-02-07T12:20:17.045Z,26.87
2019-02-07T12:23:05.048Z,26.93
2019-02-07T12:25:46.913Z,26.83
2019-02-07T12:28:36.013Z,28.40
2019-02-07T12:31:12.038Z,28.37
2019-02-07T12:34:05.146Z,25.10
2019-02-07T12:37:02.006Z,27.03
2019-02-07T12:39:39.279Z,27.90
2019-02-07T12:42:54.016Z,27.43
2019-02-07T12:45:43.061Z,30.50
2019-02-07T12:48:27.963Z,31.33
2019-02-07T12:51:14.963Z,29.37
2019-02-07T12:57:22.274Z,26.40
2019-02-07T13:00:22.805Z,28.50
2019-02-07T13:03:09.146Z,29.90
2019-02-07T13:06:01.035Z,29.27
2019-02-07T13:09:00.952Z,27.83
2019-02-07T13:11:53.694Z,27.97
2019-02-07T13:15:06.463Z,27.93
2019-02-07T13:18:01.688Z,31.10
2019-02-07T13:20:53.393Z,27.17
2019-02-07T13:23:51.590Z,30.73
2019-02-07T13:26:40.126Z,28.97
2019-02-07T13:29:37.281Z,31.77
2019-02-07T13:32:21.622Z,27.60
2019-02-07T13:35:17.932Z,33.00
2019-02-07T13:38:14.449Z,33.23
2019-02-07T13:41:01.214Z,33.73
2019-02-07T13:46:42.635Z,34.20
2019-02-07T13:49:29.194Z,34.17
2019-02-07T13:52:22.818Z,35.43
2019-02-07T13:55:22.771Z,35.50
2019-02-07T13:58:03.570Z,37.10
2019-02-07T14:00:42.225Z,36.40
2019-02-07T14:03:33.013Z,39.70
2019-02-07T14:06:15.692Z,36.80
2019-02-07T14:09:02.578Z,39.03
2019-02-07T14:11:59.868Z,39.17
2019-02-07T14:17:51.593Z,38.67
2019-02-07T14:20:42.114Z,39.07
2019-02-07T14:23:57.516Z,38.53
2019-02-07T14:26:43.904Z,39.77
2019-02-07T14:29:32.773Z,40.20
2019-02-07T14:32:24.928Z,40.23
2019-02-07T14:35:27.878Z,38.60
2019-02-07T14:38:24.899Z,42.47
2019-02-07T14:41:06.035Z,40.13
2019-02-07T14:46:50.621Z,30.83
2019-02-07T14:49:19.623Z,43.83
2019-02-07T14:51:48.607Z,42.67
2019-02-07T14:54:26.718Z,40.67
2019-02-07T14:56:55.426Z,43.93
2019-02-07T14:59:24.384Z,44.13
2019-02-07T15:01:53.056Z,44.37
2019-02-07T15:04:34.899Z,41.93
2019-02-07T15:07:03.754Z,45.10
2019-02-07T15:09:32.678Z,43.13
2019-02-07T15:12:04.603Z,43.17
2019-02-07T15:14:42.613Z,40.17
2019-02-07T15:17:12.219Z,42.53
2019-02-07T15:19:40.886Z,43.77
2019-02-07T15:22:09.853Z,42.43
2019-02-07T15:24:48.440Z,43.37
2019-02-07T15:27:18.886Z,43.03
2019-02-07T15:29:48.233Z,42.20
2019-02-07T15:32:18.735Z,43.70
2019-02-07T15:34:56.486Z,44.73
2019-02-07T15:37:25.470Z,44.50
2019-02-07T15:39:56.747Z,43.90
2019-02-07T15:42:28.264Z,44.43
2019-02-07T15:45:09.938Z,46.53
2019-02-07T15:47:41.935Z,46.93
2019-02-07T15:50:20.180Z,45.97
2019-02-07T15:52:51.985Z,46.90
2019-02-07T15:55:28.959Z,47.70
2019-02-07T15:57:57.662Z,43.30
2019-02-07T16:00:48.641Z,45.83
2019-02-07T16:03:30.786Z,46.90
2019-02-07T16:06:11.757Z,44.70
2019-02-07T16:08:40.772Z,45.30
2019-02-07T16:11:12.801Z,44.73
2019-02-07T16:13:42.217Z,48.23
2019-02-07T16:16:20.300Z,46.17
2019-02-07T16:18:48.953Z,48.13
2019-02-07T16:21:18.918Z,48.33
2019-02-07T16:23:47.923Z,47.40
2019-02-07T16:26:25.808Z,47.33
2019-02-07T16:28:55.135Z,44.90
2019-02-07T16:31:26.480Z,46.13
2019-02-07T16:33:55.599Z,45.07
2019-02-07T16:36:33.731Z,44.00
2019-02-07T16:39:02.569Z,44.80
2019-02-07T16:41:31.420Z,43.23
2019-02-07T16:44:00.215Z,44.40
2019-02-07T16:46:38.368Z,40.70
2019-02-07T16:49:10.943Z,42.97
2019-02-07T16:51:39.645Z,46.00
2019-02-07T16:54:08.360Z,45.70
2019-02-07T16:56:46.202Z,43.17
2019-02-07T16:59:16.552Z,44.17
2019-02-07T17:01:47.396Z,41.33
2019-02-07T17:04:16.414Z,44.03
2019-02-07T17:06:54.669Z,42.67
2019-02-07T17:09:36.717Z,43.60
2019-02-07T17:12:05.654Z,44.40
2019-02-07T17:14:43.352Z,43.37
2019-02-07T17:17:12.203Z,44.13
2019-02-07T17:19:40.990Z,44.87
2019-02-07T17:22:12.983Z,45.77
2019-02-07T17:27:29.080Z,42.83
2019-02-07T17:29:57.748Z,44.47
2019-02-07T17:32:26.610Z,40.60
2019-02-07T17:35:07.736Z,40.20
2019-02-07T17:37:36.378Z,39.43
2019-02-07T17:40:08.101Z,40.20
2019-02-07T17:42:36.820Z,38.77
2019-02-07T17:45:19.417Z,39.63
2019-02-07T17:47:48.283Z,40.37
2019-02-07T17:50:19.859Z,39.77
2019-02-07T17:52:50.335Z,40.37
2019-02-07T17:55:28.083Z,40.97
2019-02-07T17:57:56.725Z,40.87
2019-02-07T18:00:46.494Z,41.23
2019-02-07T18:03:15.409Z,39.73
2019-02-07T18:05:54.436Z,39.10
2019-02-07T18:08:23.585Z,38.63
2019-02-07T18:10:52.474Z,41.07
2019-02-07T18:13:21.358Z,50.60
2019-02-07T18:15:59.636Z,54.10
2019-02-07T18:18:28.309Z,42.40
2019-02-07T18:20:57.049Z,41.63
2019-02-07T18:23:25.973Z,40.10
2019-02-07T18:26:03.620Z,38.40
2019-02-07T18:28:33.501Z,37.47
2019-02-07T18:31:02.497Z,41.73
2019-02-07T18:33:31.418Z,42.40
2019-02-07T18:36:09.337Z,39.50
2019-02-07T18:38:38.253Z,40.57
2019-02-07T18:41:07.323Z,39.70
2019-02-07T18:43:36.463Z,44.37
2019-02-07T18:46:14.502Z,46.97
2019-02-07T18:48:43.148Z,44.37
2019-02-07T18:51:11.950Z,43.20
2019-02-07T18:53:40.659Z,41.57
2019-02-07T18:56:20.258Z,21.67
2019-02-07T18:58:48.944Z,2.90
2019-02-07T19:01:17.618Z,0.60
2019-02-07T19:03:50.520Z,2.97
2019-02-07T19:06:28.136Z,3.80
2019-02-07T19:08:56.796Z,1.93
2019-02-07T19:11:26.829Z,3.97
2019-02-07T19:13:55.621Z,3.40
2019-02-07T19:16:33.995Z,5.10
2019-02-07T19:19:02.864Z,7.83
2019-02-07T19:21:31.564Z,1.93
2019-02-07T19:24:01.865Z,1.70
2019-02-07T19:26:39.718Z,2.43
2019-02-07T19:29:08.701Z,3.90
2019-02-07T19:31:37.796Z,4.03
2019-02-07T19:34:06.580Z,4.87
2019-02-07T19:36:44.336Z,2.83
2019-02-07T19:39:13.080Z,5.80
2019-02-07T19:41:41.784Z,4.53
2019-02-07T19:44:12.863Z,1.80
2019-02-07T19:46:50.809Z,1.33
2019-02-07T19:49:19.466Z,3.37
2019-02-07T19:51:48.141Z,2.63
2019-02-07T19:54:19.595Z,2.30
2019-02-07T19:56:57.882Z,2.37
2019-02-07T19:59:26.512Z,1.63
2019-02-07T20:01:56.745Z,2.00
2019-02-07T20:04:27.085Z,1.27
2019-02-07T20:07:04.944Z,2.67
2019-02-07T20:09:35.687Z,4.33
2019-02-07T20:12:04.411Z,6.73
2019-02-07T20:14:33.051Z,2.13
2019-02-07T20:17:11.911Z,1.67
2019-02-07T20:19:40.529Z,0.73
2019-02-07T20:22:19.949Z,1.37
2019-02-07T20:24:46.072Z,3.40
2019-02-07T20:27:20.854Z,1.80
2019-02-07T20:29:49.508Z,0.17
2019-02-07T20:32:20.297Z,1.57
2019-02-07T20:34:49.020Z,1.60
2019-02-07T20:37:29.369Z,1.80
2019-02-07T20:39:58.034Z,2.27
2019-02-07T20:42:26.796Z,5.27
2019-02-07T20:44:57.871Z,3.07
2019-02-07T20:47:38.764Z,4.13
2019-02-07T20:50:12.762Z,1.67
2019-02-07T20:52:41.824Z,1.37
2019-02-07T20:55:10.825Z,3.10
2019-02-07T20:57:49.241Z,2.23
2019-02-07T21:00:20.989Z,1.80
2019-02-07T21:02:50.007Z,3.97
2019-02-07T21:05:18.711Z,2.63
2019-02-07T21:07:56.618Z,3.13
2019-02-07T21:10:27.236Z,0.63
2019-02-07T21:12:56.055Z,2.53
2019-02-07T21:15:25.356Z,2.70
2019-02-07T21:18:03.490Z,2.43
2019-02-07T21:20:32.527Z,3.47
2019-02-07T21:23:02.521Z,1.13
2019-02-07T21:25:34.280Z,3.43
2019-02-07T21:28:11.989Z,2.43
2019-02-07T21:30:40.715Z,2.03
2019-02-07T21:33:12.362Z,3.40
2019-02-07T21:35:44.168Z,1.23
2019-02-07T21:38:21.957Z,2.23
2019-02-07T21:40:51.175Z,5.43
2019-02-07T21:43:20.184Z,1.37
2019-02-07T21:45:48.912Z,4.13
2019-02-07T21:48:26.555Z,3.97
2019-02-07T21:50:55.647Z,0.87
2019-02-07T21:53:24.598Z,2.13
2019-02-07T21:55:53.497Z,2.20
2019-02-07T21:58:31.069Z,1.07
2019-02-07T22:00:59.844Z,1.70
2019-02-07T22:03:28.550Z,0.77
2019-02-07T22:05:57.717Z,1.80
2019-02-07T22:08:35.770Z,1.73
2019-02-07T22:11:04.446Z,2.70
2019-02-07T22:13:33.285Z,1.37
2019-02-07T22:16:03.524Z,3.23
2019-02-07T22:21:16.945Z,2.37
2019-02-07T22:23:45.849Z,0.37
2019-02-07T22:26:14.493Z,0.53
2019-02-07T22:28:54.725Z,1.60
2019-02-07T22:31:23.239Z,2.27
2019-02-07T22:33:53.998Z,0.97
2019-02-07T22:36:22.717Z,2.80
2019-02-07T22:39:00.408Z,2.30
2019-02-07T22:41:29.423Z,0.80
2019-02-07T22:43:58.121Z,0.73
2019-02-07T22:46:26.778Z,2.80
2019-02-07T22:48:55.893Z,2.20
2019-02-07T22:51:27.906Z,0.20
2019-02-07T22:53:56.720Z,0.80
2019-02-07T22:56:25.658Z,3.03
2019-02-07T22:59:06.422Z,1.77
2019-02-07T23:01:43.996Z,0.53
2019-02-07T23:04:12.755Z,2.03
2019-02-07T23:06:41.523Z,3.13
2019-02-07T23:09:19.374Z,2.80
2019-02-07T23:11:50.828Z,0.77
2019-02-07T23:14:19.572Z,5.33
2019-02-07T23:16:51.643Z,2.93
2019-02-07T23:19:29.449Z,1.10
2019-02-07T23:21:58.083Z,4.23
2019-02-07T23:24:26.798Z,1.30
2019-02-07T23:26:57.387Z,2.67
2019-02-07T23:29:38.299Z,1.70
2019-02-07T23:32:06.981Z,1.07
2019-02-07T23:34:35.686Z,3.37
2019-02-07T23:37:04.655Z,2.33
2019-02-07T23:39:42.752Z,1.57
2019-02-07T23:42:11.400Z,1.10
2019-02-07T23:44:40.116Z,0.77
2019-02-07T23:47:08.738Z,1.80
2019-02-07T23:49:40.385Z,1.37
2019-02-07T23:52:12.168Z,1.67
2019-02-07T23:54:40.848Z,0.43
2019-02-07T23:57:09.632Z,0.80
2019-02-07T23:59:47.604Z,1.27
